Time;durP1;ratioP1;P1;durP2;ratioP2;P2;SDS_P1;SDS_P2;PMS_P1;PMS_P2;Temp;Humidity;BMP_temperature;BMP_pressure;BME280_temperature;BME280_humidity;BME280_pressure;Samples;Min_cycle;Max_cycle;Signal;HPM_P1;HPM_P2
2023/03/14 00:01:17;;;;;;;15.85;3.88;;;10.10;99.90;;;;;;6160908;23;20021;-77
2023/03/14 00:03:43;;;;;;;18.10;3.78;;;10.20;99.90;;;;;;6112357;23;20017;-77
2023/03/14 00:06:13;;;;;;;26.05;4.40;;;10.50;99.90;;;;;;6136776;23;20019;-78
2023/03/14 00:08:40;;;;;;;21.00;5.00;;;10.40;99.90;;;;;;6161218;23;20013;-78
2023/03/14 00:11:26;;;;;;;19.70;4.95;;;10.30;99.90;;;;;;6185524;23;20021;-76
2023/03/14 00:13:53;;;;;;;23.13;3.83;;;10.60;99.90;;;;;;6136703;23;20013;-77
2023/03/14 00:16:19;;;;;;;13.52;3.90;;;10.60;99.90;;;;;;6136404;23;20241;-75
2023/03/14 00:18:45;;;;;;;19.13;4.15;;;10.70;99.90;;;;;;6113767;23;20177;-76
2023/03/14 00:21:11;;;;;;;22.80;4.50;;;10.60;99.90;;;;;;6161711;23;20017;-76
2023/03/14 00:23:40;;;;;;;24.15;4.13;;;10.70;99.90;;;;;;6136351;23;20048;-78
2023/03/14 00:26:19;;;;;;;15.40;3.03;;;10.80;99.90;;;;;;6160554;23;20065;-77
2023/03/14 00:28:52;;;;;;;21.67;3.65;;;10.80;99.90;;;;;;6113755;23;20049;-76
2023/03/14 00:31:18;;;;;;;20.35;4.63;;;11.00;99.90;;;;;;6135896;23;20064;-78
2023/03/14 00:33:45;;;;;;;20.15;3.78;;;10.90;99.90;;;;;;6137318;23;20021;-79
2023/03/14 00:36:13;;;;;;;15.57;3.53;;;10.90;99.90;;;;;;6136991;23;20084;-77
2023/03/14 00:38:41;;;;;;;16.90;3.53;;;10.90;99.90;;;;;;6161339;23;20017;-77
2023/03/14 00:41:11;;;;;;;16.85;4.38;;;11.10;99.90;;;;;;6161672;23;20172;-75
2023/03/14 00:43:37;;;;;;;17.45;3.85;;;11.10;99.90;;;;;;6158821;23;20016;-81
2023/03/14 00:46:03;;;;;;;17.90;3.72;;;11.10;99.90;;;;;;6161145;23;20013;-78
2023/03/14 00:48:29;;;;;;;15.57;4.07;;;10.90;99.90;;;;;;6161688;23;20021;-77
2023/03/14 00:50:55;;;;;;;12.90;3.53;;;11.00;99.90;;;;;;6162526;23;20318;-77
2023/03/14 00:53:21;;;;;;;20.02;4.05;;;11.00;99.90;;;;;;6160631;23;20013;-79
2023/03/14 00:55:48;;;;;;;15.10;3.80;;;11.00;99.90;;;;;;6161926;23;20013;-77
2023/03/14 00:58:15;;;;;;;17.05;3.40;;;11.00;99.90;;;;;;6136381;23;20010;-77
2023/03/14 01:00:42;;;;;;;18.10;4.25;;;11.10;99.90;;;;;;6160277;23;20075;-79
2023/03/14 01:03:09;;;;;;;17.23;3.53;;;11.10;99.90;;;;;;6136140;23;20173;-78
2023/03/14 01:05:38;;;;;;;15.60;3.72;;;11.00;99.90;;;;;;6160981;23;20072;-78
2023/03/14 01:08:48;;;;;;;19.88;4.18;;;11.20;99.90;;;;;;6113307;23;20382;-76
2023/03/14 01:11:17;;;;;;;16.60;3.85;;;12.10;99.90;;;;;;6158335;23;20025;-80
2023/03/14 01:13:43;;;;;;;15.73;4.05;;;11.00;99.90;;;;;;6162621;23;20026;-78
2023/03/14 01:16:10;;;;;;;13.18;3.10;;;11.20;99.90;;;;;;6138262;23;20014;-78
2023/03/14 01:18:38;;;;;;;15.45;3.00;;;11.10;99.90;;;;;;6135687;23;20068;-78
2023/03/14 01:21:10;;;;;;;11.93;3.15;;;11.00;99.90;;;;;;6137594;23;20023;-79
2023/03/14 01:23:35;;;;;;;15.07;3.38;;;11.00;99.90;;;;;;6161779;23;20017;-75
2023/03/14 01:26:01;;;;;;;16.55;3.33;;;11.10;99.90;;;;;;6163503;23;20208;-80
2023/03/14 01:28:27;;;;;;;13.60;3.80;;;11.30;99.90;;;;;;6162738;23;20208;-77
2023/03/14 01:31:26;;;;;;;14.63;3.50;;;11.30;99.90;;;;;;6112192;23;20017;-76
2023/03/14 01:33:55;;;;;;;13.93;3.22;;;11.30;99.90;;;;;;6122922;23;20181;-79
2023/03/14 01:36:21;;;;;;;18.27;3.53;;;11.10;99.90;;;;;;6111540;23;20027;-77
2023/03/14 01:42:15;;;;;;;18.52;3.80;;;9.70;99.90;;;;;;6144475;23;20037;-74
2023/03/14 01:45:37;;;;;;;18.42;3.83;;;11.50;99.90;;;;;;6111642;23;20319;-77
2023/03/14 01:48:03;;;;;;;12.52;2.63;;;10.40;99.90;;;;;;6135578;23;20013;-78
2023/03/14 01:50:47;;;;;;;21.08;3.72;;;11.40;99.90;;;;;;6134196;23;20304;-74
2023/03/14 01:53:14;;;;;;;11.45;3.00;;;11.40;99.90;;;;;;6136739;23;20013;-77
2023/03/14 01:56:21;;;;;;;17.27;3.08;;;11.50;99.90;;;;;;6112052;23;20022;-76
2023/03/14 01:58:54;;;;;;;13.13;3.72;;;11.60;99.90;;;;;;6117442;23;20017;-75
2023/03/14 02:01:24;;;;;;;12.35;3.03;;;11.40;99.90;;;;;;6112132;23;20041;-74
2023/03/14 02:03:58;;;;;;;12.85;3.35;;;11.30;99.90;;;;;;6111859;23;20178;-80
2023/03/14 02:06:28;;;;;;;12.27;2.92;;;11.30;99.90;;;;;;6135576;23;20095;-77
2023/03/14 02:08:55;;;;;;;12.40;2.78;;;11.50;99.90;;;;;;6136911;23;20040;-80
2023/03/14 02:11:21;;;;;;;13.73;2.92;;;11.20;99.90;;;;;;6160668;23;20224;-78
2023/03/14 02:13:48;;;;;;;10.48;3.17;;;11.40;99.90;;;;;;6111955;23;20049;-79
2023/03/14 02:16:14;;;;;;;9.55;2.88;;;11.40;99.90;;;;;;6136287;23;20191;-79
2023/03/14 02:19:07;;;;;;;8.88;2.28;;;11.40;99.90;;;;;;6136089;23;20024;-78
2023/03/14 02:21:51;;;;;;;9.85;2.53;;;11.10;99.90;;;;;;6134344;23;20173;-75
2023/03/14 02:24:36;;;;;;;17.55;3.15;;;11.30;99.90;;;;;;6111733;23;20312;-75
2023/03/14 02:27:13;;;;;;;13.52;2.60;;;11.30;99.90;;;;;;6135642;23;20028;-78
2023/03/14 02:30:09;;;;;;;9.80;2.40;;;11.20;99.90;;;;;;6134436;23;20218;-77
2023/03/14 02:32:38;;;;;;;9.48;2.35;;;11.00;99.90;;;;;;6134807;23;20136;-79
2023/03/14 02:35:09;;;;;;;11.98;2.80;;;11.10;99.90;;;;;;6135233;23;20068;-79
2023/03/14 02:37:59;;;;;;;10.23;2.53;;;10.80;99.90;;;;;;6134426;23;20220;-76
2023/03/14 02:40:24;;;;;;;9.07;2.78;;;11.10;99.90;;;;;;6110089;23;20010;-78
2023/03/14 02:42:50;;;;;;;9.73;2.42;;;10.80;99.90;;;;;;6135265;23;20069;-79
2023/03/14 02:45:16;;;;;;;11.05;2.35;;;10.70;99.90;;;;;;6159596;23;20021;-79
2023/03/14 02:47:52;;;;;;;13.65;2.30;;;10.70;99.90;;;;;;6135267;23;20613;-75
2023/03/14 02:50:24;;;;;;;8.98;2.42;;;10.80;99.90;;;;;;6160877;23;20013;-75
2023/03/14 02:52:50;;;;;;;9.50;2.55;;;10.70;99.90;;;;;;6111720;23;20066;-75
2023/03/14 02:55:21;;;;;;;14.35;3.20;;;10.80;99.90;;;;;;6160771;23;20013;-75
2023/03/14 02:57:46;;;;;;;10.93;2.55;;;10.80;99.90;;;;;;6160920;23;20017;-76
2023/03/14 03:00:12;;;;;;;7.97;2.58;;;11.00;99.90;;;;;;6111027;23;20025;-77
2023/03/14 03:02:39;;;;;;;9.30;2.60;;;11.00;99.90;;;;;;6134523;23;20017;-76
2023/03/14 03:05:05;;;;;;;8.13;2.38;;;11.00;99.90;;;;;;6135553;23;20489;-76
2023/03/14 03:07:30;;;;;;;11.88;2.92;;;11.00;99.90;;;;;;6159658;23;20098;-74
2023/03/14 03:10:20;;;;;;;7.10;2.28;;;10.80;99.90;;;;;;6159136;23;20361;-79
2023/03/14 03:12:48;;;;;;;10.10;2.97;;;11.00;99.90;;;;;;6111475;23;20063;-78
2023/03/14 03:15:14;;;;;;;5.78;2.22;;;11.00;99.90;;;;;;6135961;23;20013;-78
2023/03/14 03:17:40;;;;;;;10.00;3.10;;;10.90;99.90;;;;;;6136842;23;20265;-80
2023/03/14 03:20:08;;;;;;;9.30;2.20;;;11.00;99.90;;;;;;6161094;23;20025;-79
2023/03/14 03:22:38;;;;;;;7.30;2.20;;;10.70;99.90;;;;;;6135577;23;20080;-78
2023/03/14 03:25:05;;;;;;;9.25;3.03;;;10.90;99.90;;;;;;6136391;23;20017;-81
2023/03/14 03:27:33;;;;;;;12.48;2.97;;;10.90;99.90;;;;;;6160933;23;20010;-81
2023/03/14 03:29:59;;;;;;;9.82;3.38;;;10.70;99.90;;;;;;6137819;23;20072;-75
2023/03/14 03:32:25;;;;;;;11.45;3.38;;;10.40;99.90;;;;;;6137651;23;20017;-76
2023/03/14 03:34:51;;;;;;;8.63;2.83;;;10.70;99.90;;;;;;6187156;23;20009;-76
2023/03/14 03:37:17;;;;;;;8.07;2.78;;;10.20;99.90;;;;;;6162324;23;20044;-76
2023/03/14 03:39:43;;;;;;;13.13;4.03;;;10.20;99.90;;;;;;6137101;23;20076;-78
2023/03/14 03:42:09;;;;;;;15.02;3.75;;;10.40;99.90;;;;;;6137964;23;20017;-78
2023/03/14 03:44:35;;;;;;;13.63;3.08;;;10.30;99.90;;;;;;6136258;23;20446;-77
2023/03/14 03:47:01;;;;;;;10.27;3.33;;;10.30;99.90;;;;;;6162872;23;20021;-80
2023/03/14 03:49:31;;;;;;;8.07;2.88;;;10.40;99.90;;;;;;6162851;23;20051;-79
2023/03/14 03:51:57;;;;;;;9.50;2.92;;;10.00;99.90;;;;;;6163380;23;20014;-78
2023/03/14 03:54:22;;;;;;;6.13;3.58;;;9.90;99.90;;;;;;6138105;23;20014;-79
2023/03/14 03:56:48;;;;;;;11.38;3.45;;;10.70;99.90;;;;;;6137957;23;20020;-78
2023/03/14 03:59:14;;;;;;;10.60;3.42;;;10.50;99.90;;;;;;6138583;23;20184;-77
2023/03/14 04:01:40;;;;;;;12.60;3.60;;;10.10;99.90;;;;;;6136665;23;20025;-77
2023/03/14 04:04:05;;;;;;;12.63;4.00;;;10.30;99.90;;;;;;6137002;23;20052;-79
2023/03/14 04:06:31;;;;;;;13.10;3.90;;;10.50;99.90;;;;;;6162513;23;20021;-78
2023/03/14 04:08:57;;;;;;;8.82;3.70;;;10.70;99.90;;;;;;6137656;23;20620;-77
2023/03/14 04:11:49;;;;;;;14.48;4.07;;;10.10;99.90;;;;;;6137821;23;20064;-76
2023/03/14 04:14:15;;;;;;;22.17;5.93;;;10.80;99.90;;;;;;6101883;23;20048;-77
2023/03/14 04:16:41;;;;;;;13.23;4.60;;;10.70;99.90;;;;;;6161564;23;20066;-78
2023/03/14 04:19:06;;;;;;;17.40;4.90;;;10.60;99.90;;;;;;6135688;23;20054;-78
2023/03/14 04:21:32;;;;;;;15.45;4.28;;;10.10;99.90;;;;;;6137429;23;20076;-78
2023/03/14 04:23:58;;;;;;;11.43;3.72;;;10.70;99.90;;;;;;6137244;23;20068;-77
2023/03/14 04:26:24;;;;;;;14.68;4.38;;;10.20;99.90;;;;;;6137846;23;20029;-77
2023/03/14 04:28:49;;;;;;;14.18;4.72;;;10.80;99.90;;;;;;6136970;23;20025;-77
2023/03/14 04:31:18;;;;;;;16.35;5.18;;;10.70;99.90;;;;;;6161688;23;20052;-76
2023/03/14 04:33:44;;;;;;;18.55;5.00;;;10.20;99.90;;;;;;6137681;23;20021;-80
2023/03/14 04:36:11;;;;;;;11.98;4.78;;;10.80;99.90;;;;;;6112132;23;20055;-78
2023/03/14 04:38:36;;;;;;;19.42;5.85;;;10.70;99.90;;;;;;6137394;23;20345;-79
2023/03/14 04:41:03;;;;;;;9.88;4.80;;;10.50;99.90;;;;;;6162022;23;20109;-78
2023/03/14 04:43:29;;;;;;;10.77;5.13;;;10.70;99.90;;;;;;6162123;23;20037;-79
2023/03/14 04:45:56;;;;;;;12.90;5.35;;;10.60;99.90;;;;;;6161817;23;20052;-76
2023/03/14 04:48:26;;;;;;;13.73;5.72;;;10.00;99.90;;;;;;6112559;23;20017;-77
2023/03/14 04:50:52;;;;;;;18.10;6.28;;;10.00;99.90;;;;;;6159523;23;20017;-77
2023/03/14 04:53:18;;;;;;;18.10;6.22;;;10.30;99.90;;;;;;6111987;23;20199;-79
2023/03/14 04:55:50;;;;;;;15.65;6.90;;;10.60;99.90;;;;;;6160460;23;20037;-78
2023/03/14 04:58:16;;;;;;;17.15;7.05;;;10.10;99.90;;;;;;6111131;23;20032;-78
2023/03/14 05:00:49;;;;;;;11.48;6.57;;;10.10;99.90;;;;;;6111306;23;20231;-78
2023/03/14 05:03:26;;;;;;;12.70;6.00;;;10.60;99.90;;;;;;6161383;23;20311;-78
2023/03/14 05:05:54;;;;;;;12.82;6.07;;;10.70;99.90;;;;;;6112254;23;20020;-78
2023/03/14 05:08:20;;;;;;;15.73;6.30;;;10.70;99.90;;;;;;6160176;23;20068;-79
2023/03/14 05:10:54;;;;;;;16.48;7.00;;;10.70;99.90;;;;;;6136626;23;20292;-78
2023/03/14 05:13:21;;;;;;;12.75;5.68;;;10.30;99.90;;;;;;6138586;23;20188;-82
2023/03/14 05:15:47;;;;;;;15.52;6.00;;;10.70;99.90;;;;;;6138293;23;20013;-81
2023/03/14 05:18:13;;;;;;;19.50;6.55;;;10.70;99.90;;;;;;6138612;23;20072;-81
2023/03/14 05:20:38;;;;;;;11.57;5.28;;;10.30;99.90;;;;;;6137870;23;20037;-79
2023/03/14 05:23:04;;;;;;;14.45;5.97;;;10.80;99.90;;;;;;6164672;23;20107;-81
2023/03/14 05:25:30;;;;;;;14.07;6.10;;;10.00;99.90;;;;;;6163621;23;20320;-78
2023/03/14 05:27:56;;;;;;;13.45;6.03;;;10.20;99.90;;;;;;6113056;23;20072;-79
2023/03/14 05:34:10;;;;;;;16.23;5.97;;;10.70;99.90;;;;;;6132665;23;20017;-80
2023/03/14 05:36:35;;;;;;;14.60;5.70;;;9.90;99.90;;;;;;6138221;23;20330;-79
2023/03/14 05:39:01;;;;;;;14.45;6.28;;;11.00;99.90;;;;;;6137561;23;20010;-79
2023/03/14 05:41:27;;;;;;;15.57;6.93;;;10.10;99.90;;;;;;6160164;23;20012;-80
2023/03/14 05:43:55;;;;;;;12.68;6.32;;;9.90;99.90;;;;;;6137260;23;20303;-80
2023/03/14 05:46:20;;;;;;;14.38;6.32;;;11.00;99.90;;;;;;6137886;23;20013;-80
2023/03/14 05:48:46;;;;;;;17.88;6.95;;;10.90;99.90;;;;;;6112445;23;20021;-80
2023/03/14 05:51:12;;;;;;;13.43;5.78;;;10.10;99.90;;;;;;6161661;23;20013;-80
2023/03/14 05:53:40;;;;;;;12.93;5.78;;;10.00;99.90;;;;;;6112796;23;20037;-80
2023/03/14 05:56:09;;;;;;;12.73;6.45;;;11.00;99.90;;;;;;6111812;23;20335;-80
2023/03/14 05:58:38;;;;;;;15.20;6.70;;;10.40;99.90;;;;;;6112660;23;20017;-81
2023/03/14 06:01:05;;;;;;;12.95;5.68;;;11.20;99.90;;;;;;6161356;23;20013;-79
2023/03/14 06:03:31;;;;;;;11.38;5.75;;;10.80;99.90;;;;;;6163345;23;20060;-79
2023/03/14 06:05:57;;;;;;;15.23;5.90;;;10.00;99.90;;;;;;6112902;23;20021;-78
2023/03/14 06:08:24;;;;;;;13.90;6.10;;;11.20;99.90;;;;;;6112566;23;20064;-79
2023/03/14 06:10:51;;;;;;;9.10;5.32;;;11.00;99.90;;;;;;6112940;23;20013;-81
2023/03/14 06:13:19;;;;;;;9.52;4.68;;;11.40;99.90;;;;;;6136928;23;20212;-80
2023/03/14 06:15:48;;;;;;;17.58;5.60;;;11.80;99.90;;;;;;6137396;23;20009;-79
2023/03/14 06:18:14;;;;;;;11.60;4.85;;;9.20;99.90;;;;;;6186053;23;20028;-78
2023/03/14 06:20:39;;;;;;;9.35;5.25;;;12.00;99.90;;;;;;6136288;23;20010;-79
2023/03/14 06:23:06;;;;;;;14.18;5.63;;;9.10;99.90;;;;;;6187644;23;20041;-81
2023/03/14 06:25:33;;;;;;;7.35;4.55;;;11.50;99.90;;;;;;6138044;23;20389;-85
2023/03/14 06:27:58;;;;;;;14.38;5.20;;;11.40;99.90;;;;;;6113827;23;20006;-75
2023/03/14 06:30:30;;;;;;;11.13;4.68;;;11.80;99.90;;;;;;6162476;23;20120;-82
2023/03/14 06:32:56;;;;;;;8.35;4.65;;;9.90;99.90;;;;;;6112525;23;20056;-81
2023/03/14 06:35:23;;;;;;;15.90;4.90;;;11.90;99.90;;;;;;6136914;23;20014;-80
2023/03/14 06:37:48;;;;;;;8.23;5.03;;;9.30;99.90;;;;;;6161816;23;20024;-81
2023/03/14 06:40:18;;;;;;;5.43;1.17;;;12.00;99.90;;;;;;6113714;23;20010;-83
2023/03/14 06:42:44;;;;;;;4.13;1.35;;;8.30;99.90;;;;;;6138367;23;20316;-80
2023/03/14 06:45:11;;;;;;;3.83;1.38;;;8.80;99.90;;;;;;6113507;23;20029;-81
2023/03/14 06:47:38;;;;;;;4.35;0.98;;;8.40;99.90;;;;;;6161885;23;20005;-80
2023/03/14 06:50:08;;;;;;;6.18;1.20;;;9.70;99.90;;;;;;6161040;23;20009;-80
2023/03/14 06:52:34;;;;;;;6.80;1.30;;;7.80;99.90;;;;;;6161992;23;20015;-81
2023/03/14 06:54:59;;;;;;;15.85;2.30;;;9.20;99.90;;;;;;6137627;23;20017;-81
2023/03/14 06:57:25;;;;;;;8.90;1.42;;;9.40;99.90;;;;;;6137639;23;20010;-81
2023/03/14 07:03:15;;;;;;;16.27;2.95;;;8.90;99.90;;;;;;6161055;23;20048;-83
2023/03/14 07:05:41;;;;;;;7.38;1.58;;;6.80;99.90;;;;;;6139551;23;20064;-82
2023/03/14 07:08:07;;;;;;;9.52;1.73;;;6.70;99.90;;;;;;6164170;23;20463;-81
2023/03/14 07:10:33;;;;;;;5.38;1.00;;;5.20;99.90;;;;;;6139758;23;20020;-81
2023/03/14 07:12:59;;;;;;;6.18;1.30;;;7.10;99.90;;;;;;6115121;23;20049;-82
2023/03/14 07:15:25;;;;;;;5.43;0.68;;;7.20;99.90;;;;;;6164549;23;20009;-82
2023/03/14 07:17:54;;;;;;;6.30;1.27;;;7.50;99.90;;;;;;6139053;23;20362;-83
2023/03/14 07:20:23;;;;;;;4.10;1.40;;;5.70;99.90;;;;;;6114664;23;20417;-82
2023/03/14 07:22:49;;;;;;;6.03;0.95;;;6.70;99.90;;;;;;6114578;23;20076;-79
2023/03/14 07:25:16;;;;;;;3.70;0.73;;;5.90;99.90;;;;;;6164091;23;20021;-80
2023/03/14 07:27:54;;;;;;;1.80;0.60;;;5.60;99.90;;;;;;6138119;23;20080;-80
2023/03/14 07:30:20;;;;;;;1.80;0.60;;;5.50;99.90;;;;;;6138873;23;20016;-81
2023/03/14 07:32:45;;;;;;;3.42;0.98;;;6.70;99.90;;;;;;6137984;23;20064;-82
2023/03/14 07:35:21;;;;;;;2.42;0.50;;;6.70;99.90;;;;;;6114284;23;20010;-78
2023/03/14 07:37:46;;;;;;;0.95;0.30;;;6.60;99.90;;;;;;6137282;23;20037;-83
2023/03/14 07:40:14;;;;;;;1.85;0.40;;;6.50;99.90;;;;;;6188213;23;20068;-81
2023/03/14 07:42:42;;;;;;;1.48;0.50;;;6.10;99.90;;;;;;6138572;23;20017;-83
2023/03/14 07:45:09;;;;;;;5.53;0.60;;;6.50;99.90;;;;;;6114611;23;20015;-83
2023/03/14 07:47:35;;;;;;;1.60;0.50;;;5.20;99.90;;;;;;6115017;23;20169;-83
2023/03/14 07:50:05;;;;;;;2.10;0.60;;;6.80;99.90;;;;;;6163984;23;20073;-83
2023/03/14 07:52:34;;;;;;;0.95;0.63;;;6.20;99.90;;;;;;6115107;23;20333;-82
2023/03/14 07:55:03;;;;;;;3.60;0.57;;;4.90;99.90;;;;;;6139525;23;20044;-83
2023/03/14 07:57:29;;;;;;;1.08;0.63;;;5.50;99.90;;;;;;6115736;23;20009;-83
2023/03/14 07:59:55;;;;;;;4.78;0.60;;;7.00;99.90;;;;;;6138764;23;20050;-83
2023/03/14 08:02:23;;;;;;;0.90;0.50;;;6.00;99.90;;;;;;6115433;23;20169;-83
2023/03/14 08:04:50;;;;;;;2.80;0.52;;;5.40;99.90;;;;;;6139234;23;20017;-82
2023/03/14 08:07:17;;;;;;;2.55;0.40;;;6.60;99.90;;;;;;6163719;23;20270;-83
2023/03/14 08:09:43;;;;;;;3.83;0.65;;;7.10;99.90;;;;;;6139600;23;20021;-83
2023/03/14 08:12:08;;;;;;;2.28;0.50;;;5.20;99.90;;;;;;6139107;23;20041;-83
2023/03/14 08:14:34;;;;;;;5.90;1.08;;;7.00;99.90;;;;;;6114974;23;20021;-83
2023/03/14 08:17:00;;;;;;;4.07;0.60;;;6.80;99.90;;;;;;6138965;23;20014;-81
2023/03/14 08:19:26;;;;;;;2.47;0.63;;;6.50;99.90;;;;;;6138168;23;20041;-82
2023/03/14 08:22:02;;;;;;;3.95;1.17;;;7.10;99.90;;;;;;6163414;23;20015;-82
2023/03/14 08:24:31;;;;;;;2.85;0.50;;;5.50;99.90;;;;;;6114338;23;20017;-80
2023/03/14 08:27:03;;;;;;;3.65;0.55;;;6.00;99.90;;;;;;6163460;23;20045;-80
2023/03/14 08:29:28;;;;;;;0.80;0.32;;;6.00;99.90;;;;;;6138217;23;20304;-80
2023/03/14 08:31:54;;;;;;;3.33;0.82;;;7.30;99.90;;;;;;6137188;23;20018;-79
2023/03/14 08:34:29;;;;;;;4.93;0.70;;;7.80;99.90;;;;;;6112714;23;20227;-80
2023/03/14 08:36:56;;;;;;;4.90;0.70;;;6.10;99.90;;;;;;6112283;23;20014;-79
2023/03/14 08:39:23;;;;;;;3.92;0.82;;;6.60;99.90;;;;;;6137734;23;20197;-78
2023/03/14 08:41:50;;;;;;;7.10;1.13;;;6.00;99.90;;;;;;6137317;23;20009;-80
2023/03/14 08:44:15;;;;;;;5.82;1.52;;;6.00;99.90;;;;;;6112827;23;20399;-80
2023/03/14 08:46:41;;;;;;;4.95;1.67;;;6.00;99.90;;;;;;6136902;23;20028;-80
2023/03/14 08:50:09;;;;;;;3.95;1.20;;;6.50;99.90;;;;;;6112105;23;20076;-82
2023/03/14 08:52:37;;;;;;;6.38;1.30;;;7.60;99.90;;;;;;6112789;23;20031;-84
2023/03/14 08:55:08;;;;;;;4.70;1.50;;;6.40;99.90;;;;;;6139063;23;20312;-82
2023/03/14 08:57:33;;;;;;;10.20;1.48;;;5.20;99.90;;;;;;6135634;23;20016;-80
2023/03/14 09:00:00;;;;;;;3.65;1.27;;;6.80;99.90;;;;;;6136881;23;20010;-80
2023/03/14 09:02:26;;;;;;;8.23;1.15;;;8.10;99.90;;;;;;6137544;23;20072;-80
2023/03/14 09:04:53;;;;;;;9.75;1.48;;;7.50;99.90;;;;;;6137208;23;20021;-79
2023/03/14 09:07:19;;;;;;;9.07;1.50;;;6.60;99.90;;;;;;6111660;23;20027;-80
2023/03/14 09:09:45;;;;;;;10.02;1.88;;;8.00;99.90;;;;;;6112314;23;20021;-80
2023/03/14 09:12:16;;;;;;;15.68;2.20;;;7.30;99.90;;;;;;6112672;23;20020;-79
2023/03/14 09:14:42;;;;;;;6.28;1.50;;;6.90;99.90;;;;;;6135614;23;20014;-80
2023/03/14 09:17:08;;;;;;;10.05;1.67;;;7.50;99.90;;;;;;6111147;23;20014;-80
2023/03/14 09:19:33;;;;;;;12.60;2.88;;;7.90;99.90;;;;;;6135460;23;20315;-78
2023/03/14 09:21:59;;;;;;;11.00;1.88;;;7.50;99.90;;;;;;6135140;23;20307;-79
2023/03/14 09:24:25;;;;;;;11.85;2.25;;;7.40;99.90;;;;;;6159006;23;20016;-79
2023/03/14 09:26:50;;;;;;;17.48;3.35;;;7.60;99.90;;;;;;6135150;23;20043;-78
2023/03/14 09:29:27;;;;;;;10.40;2.10;;;7.60;99.90;;;;;;6135293;23;20076;-77
2023/03/14 09:31:58;;;;;;;5.75;1.35;;;7.50;99.90;;;;;;6159891;23;20123;-79
2023/03/14 09:34:23;;;;;;;11.20;1.73;;;7.80;99.90;;;;;;6135519;23;20020;-79
2023/03/14 09:36:49;;;;;;;14.65;2.28;;;7.50;99.90;;;;;;6159335;23;20072;-77
2023/03/14 09:39:16;;;;;;;16.30;3.20;;;7.80;99.90;;;;;;6135690;23;20060;-79
2023/03/14 09:41:54;;;;;;;18.50;3.28;;;7.50;99.90;;;;;;6134716;23;20204;-81
2023/03/14 09:44:30;;;;;;;9.48;2.72;;;7.80;99.90;;;;;;6110856;23;20009;-77
2023/03/14 09:47:00;;;;;;;14.60;2.55;;;7.80;99.90;;;;;;6111657;23;20260;-79
2023/03/14 09:49:32;;;;;;;10.45;2.30;;;7.80;99.90;;;;;;6135221;23;20212;-77
2023/03/14 09:52:39;;;;;;;14.35;2.80;;;7.90;99.90;;;;;;6135189;23;20019;-79
2023/03/14 09:55:09;;;;;;;8.10;1.80;;;7.50;99.90;;;;;;6095946;23;20020;-78
2023/03/14 09:57:36;;;;;;;9.98;2.17;;;8.00;99.90;;;;;;6183012;23;20024;-81
2023/03/14 10:00:13;;;;;;;13.35;2.30;;;8.00;99.90;;;;;;6133258;23;20241;-77
2023/03/14 10:02:42;;;;;;;30.15;3.60;;;8.00;99.90;;;;;;6134034;23;20166;-79
2023/03/14 10:05:20;;;;;;;15.70;2.25;;;7.90;99.90;;;;;;6134416;23;20048;-77
2023/03/14 10:07:46;;;;;;;11.50;2.42;;;8.00;99.90;;;;;;6160096;23;20195;-78
2023/03/14 10:10:15;;;;;;;11.43;1.95;;;7.90;99.90;;;;;;6159828;23;20016;-75
2023/03/14 10:13:01;;;;;;;8.98;2.13;;;7.90;99.90;;;;;;6134997;23;20052;-76
2023/03/14 10:15:35;;;;;;;14.43;2.53;;;7.70;99.90;;;;;;6118979;23;20017;-79
2023/03/14 10:18:02;;;;;;;6.03;2.00;;;7.70;99.90;;;;;;6135304;23;20010;-77
2023/03/14 10:20:34;;;;;;;8.63;1.80;;;7.50;99.90;;;;;;6134541;23;20049;-79
2023/03/14 10:23:05;;;;;;;13.75;2.20;;;7.60;99.90;;;;;;6135427;23;20017;-79
2023/03/14 10:25:34;;;;;;;15.02;2.22;;;7.60;99.90;;;;;;6159355;23;20232;-76
2023/03/14 10:28:04;;;;;;;9.57;1.77;;;7.60;99.90;;;;;;6135226;23;20016;-77
2023/03/14 10:30:38;;;;;;;6.25;1.83;;;7.60;99.90;;;;;;6133693;23;20020;-77
2023/03/14 10:33:28;;;;;;;14.60;1.98;;;7.70;99.90;;;;;;6134386;23;20020;-79
2023/03/14 10:36:19;;;;;;;6.32;1.95;;;7.90;99.90;;;;;;6184372;23;20021;-78
2023/03/14 10:38:45;;;;;;;6.72;1.63;;;7.80;99.90;;;;;;6137104;23;20049;-76
2023/03/14 10:41:17;;;;;;;4.97;1.48;;;7.90;99.90;;;;;;6112247;23;20017;-77
2023/03/14 10:43:43;;;;;;;5.32;2.00;;;7.80;99.90;;;;;;6137151;23;20017;-77
2023/03/14 10:46:17;;;;;;;12.52;1.58;;;7.80;99.90;;;;;;6112311;23;20017;-77
2023/03/14 10:48:45;;;;;;;19.17;2.45;;;7.80;99.90;;;;;;6136211;23;20014;-77
2023/03/14 10:51:17;;;;;;;10.18;1.70;;;7.90;99.90;;;;;;6111616;23;20064;-77
2023/03/14 10:54:03;;;;;;;6.90;1.38;;;7.90;99.90;;;;;;6136744;23;20461;-78
2023/03/14 10:56:36;;;;;;;10.02;1.63;;;8.00;99.90;;;;;;6111900;23;20022;-77
2023/03/14 10:59:06;;;;;;;4.28;1.20;;;8.00;99.90;;;;;;6137702;23;20009;-76
2023/03/14 11:01:52;;;;;;;4.55;1.30;;;7.80;99.90;;;;;;6160763;23;20043;-78
2023/03/14 11:04:47;;;;;;;4.93;1.15;;;7.60;99.90;;;;;;6161294;23;20024;-78
2023/03/14 11:07:22;;;;;;;3.33;1.00;;;6.60;99.90;;;;;;6135776;23;20028;-77
2023/03/14 11:10:12;;;;;;;7.53;1.35;;;7.40;99.90;;;;;;6135566;23;20013;-76
2023/03/14 11:13:06;;;;;;;5.88;2.00;;;7.50;99.90;;;;;;6135721;23;20013;-77
2023/03/14 11:15:50;;;;;;;6.03;1.58;;;7.80;99.90;;;;;;6135716;23;20082;-78
2023/03/14 11:18:24;;;;;;;4.30;1.02;;;8.20;99.90;;;;;;6135638;23;20017;-78
2023/03/14 11:21:33;;;;;;;6.95;1.50;;;8.00;97.90;;;;;;6135894;23;20017;-79
2023/03/14 11:24:15;;;;;;;7.05;1.50;;;7.70;68.60;;;;;;6159652;23;20021;-78
2023/03/14 11:26:45;;;;;;;6.50;1.30;;;7.70;99.10;;;;;;6161568;23;20014;-77
2023/03/14 11:29:41;;;;;;;5.00;1.25;;;7.80;99.90;;;;;;6136811;23;20073;-79
2023/03/14 11:32:14;;;;;;;;;;;7.60;61.70;;;;;;6113278;23;20457;-77
2023/03/14 11:34:54;;;;;;;5.97;1.30;;;7.50;36.20;;;;;;6112729;23;20206;-76
2023/03/14 11:37:33;;;;;;;;;;;;;;;;;;;;;
2023/03/14 11:40:08;;;;;;;3.65;1.15;;;7.80;1.00;;;;;;6136857;23;20080;-78
2023/03/14 11:42:33;;;;;;;5.50;1.33;;;8.10;24.40;;;;;;6135779;23;20017;-76
2023/03/14 11:45:01;;;;;;;3.20;1.10;;;8.20;7.10;;;;;;6136977;23;20447;-79
2023/03/14 11:47:39;;;;;;;5.03;1.25;;;8.20;1.00;;;;;;6160306;23;20259;-76
2023/03/14 11:50:35;;;;;;;3.28;0.95;;;8.10;1.00;;;;;;6137008;23;20194;-76
2023/03/14 11:53:14;;;;;;;4.40;1.20;;;7.90;1.00;;;;;;6112251;23;20021;-77
2023/03/14 11:55:42;;;;;;;2.53;0.98;;;8.30;1.00;;;;;;6136774;23;20064;-76
2023/03/14 11:58:25;;;;;;;5.72;1.00;;;8.30;3.60;;;;;;6112280;23;20017;-76
2023/03/14 12:00:54;;;;;;;2.25;0.70;;;8.50;1.00;;;;;;6160656;23;20052;-76
2023/03/14 12:03:19;;;;;;;7.40;1.67;;;8.20;1.00;;;;;;6136014;23;20069;-76
2023/03/14 12:06:20;;;;;;;2.33;0.82;;;8.10;1.00;;;;;;6136447;23;20533;-79
2023/03/14 12:09:04;;;;;;;2.42;0.95;;;7.90;1.00;;;;;;6112283;23;20303;-77
2023/03/14 12:15:05;;;;;;;7.18;1.65;;;8.00;1.00;;;;;;6162583;23;20051;-75
2023/03/14 12:17:43;;;;;;;7.72;1.73;;;7.70;1.00;;;;;;6160098;23;20048;-77
2023/03/14 12:20:14;;;;;;;5.05;1.42;;;7.70;8.60;;;;;;6136654;23;20014;-77
2023/03/14 12:23:11;;;;;;;6.28;1.23;;;7.60;24.70;;;;;;6136159;23;20223;-77
2023/03/14 12:25:37;;;;;;;4.38;1.42;;;7.50;22.50;;;;;;6130731;23;20013;-78
2023/03/14 12:28:17;;;;;;;5.50;1.17;;;7.40;18.00;;;;;;6112465;23;20020;-78
2023/03/14 12:30:43;;;;;;;7.25;1.58;;;7.50;29.00;;;;;;6136612;23;20028;-78
2023/03/14 12:33:17;;;;;;;7.30;1.65;;;7.50;45.70;;;;;;6160519;23;20018;-79
2023/03/14 12:35:44;;;;;;;;;;;7.40;50.00;;;;;;6136739;23;20064;-77
2023/03/14 12:38:35;;;;;;;10.45;1.60;;;7.90;76.50;;;;;;6135957;23;19980;-77
2023/03/14 12:41:26;;;;;;;4.75;1.58;;;7.40;99.90;;;;;;6136586;23;20009;-78
2023/03/14 12:43:52;;;;;;;11.43;1.83;;;7.10;96.90;;;;;;6136907;23;20009;-78
2023/03/14 12:46:17;;;;;;;8.02;2.58;;;7.10;84.40;;;;;;6160903;23;20016;-77
2023/03/14 12:49:08;;;;;;;6.30;1.40;;;7.10;74.00;;;;;;6136682;23;20096;-78
2023/03/14 12:51:41;;;;;;;5.40;2.05;;;7.00;61.50;;;;;;6131139;23;20080;-78
2023/03/14 12:54:39;;;;;;;6.25;1.48;;;7.10;63.80;;;;;;6111958;23;20493;-77
2023/03/14 12:57:50;;;;;;;6.43;1.80;;;8.40;18.30;;;;;;6111041;23;20070;-78
2023/03/14 13:00:43;;;;;;;4.65;1.13;;;7.30;11.60;;;;;;6109648;23;20239;-77
2023/03/14 13:03:27;;;;;;;4.60;1.35;;;7.60;22.30;;;;;;6110773;23;20025;-78
2023/03/14 13:05:58;;;;;;;5.32;1.48;;;7.40;1.00;;;;;;6112448;23;20013;-77
2023/03/14 13:08:42;;;;;;;3.78;1.10;;;7.40;1.00;;;;;;6134994;23;20013;-76
2023/03/14 13:11:19;;;;;;;2.38;0.88;;;7.30;1.00;;;;;;6136100;23;20258;-74
2023/03/14 13:13:51;;;;;;;4.40;1.13;;;7.50;1.00;;;;;;6111899;23;20358;-75
2023/03/14 13:16:20;;;;;;;4.25;1.42;;;7.50;1.00;;;;;;6135664;23;20041;-77
2023/03/14 13:18:48;;;;;;;3.30;0.80;;;7.70;1.00;;;;;;6185471;23;20069;-76
2023/03/14 13:21:27;;;;;;;2.75;0.98;;;7.70;1.00;;;;;;6111143;23;20017;-76
2023/03/14 13:24:00;;;;;;;3.58;1.05;;;7.90;1.00;;;;;;6135504;23;20013;-76
2023/03/14 13:26:36;;;;;;;2.77;0.80;;;8.20;1.00;;;;;;6135134;23;20032;-76